createdAt,value
2018-03-03T00:02:17.073Z,6.08
2018-03-03T00:04:45.089Z,6.52
2018-03-03T00:07:13.097Z,6.60
2018-03-03T00:09:41.031Z,6.71
2018-03-03T00:12:08.960Z,6.78
2018-03-03T00:14:36.911Z,6.80
2018-03-03T00:17:04.888Z,6.48
2018-03-03T00:19:32.817Z,6.76
2018-03-03T00:22:00.817Z,5.71
2018-03-03T00:24:28.749Z,6.13
2018-03-03T00:26:56.753Z,6.37
2018-03-03T00:29:24.670Z,6.46
2018-03-03T00:31:52.612Z,6.54
2018-03-03T00:34:20.550Z,6.63
2018-03-03T00:36:48.418Z,6.63
2018-03-03T00:39:16.850Z,6.78
2018-03-03T00:41:44.837Z,6.75
2018-03-03T00:44:12.839Z,6.30
2018-03-03T00:46:40.756Z,5.94
2018-03-03T00:49:08.809Z,6.32
2018-03-03T00:51:36.759Z,6.68
2018-03-03T00:54:04.720Z,6.75
2018-03-03T00:56:32.680Z,6.90
2018-03-03T00:59:00.633Z,7.06
2018-03-03T01:01:28.561Z,7.14
2018-03-03T01:03:56.486Z,7.19
2018-03-03T01:06:24.456Z,7.21
2018-03-03T01:08:52.412Z,6.73
2018-03-03T01:11:20.385Z,6.89
2018-03-03T01:13:48.362Z,6.95
2018-03-03T01:16:16.330Z,7.10
2018-03-03T01:18:44.286Z,7.23
2018-03-03T01:21:12.258Z,7.07
2018-03-03T01:23:40.234Z,6.80
2018-03-03T01:26:08.197Z,6.25
2018-03-03T01:28:36.177Z,6.06
2018-03-03T01:31:04.209Z,6.12
2018-03-03T01:33:32.151Z,5.76
2018-03-03T01:36:00.057Z,6.09
2018-03-03T01:38:28.034Z,5.81
2018-03-03T01:40:56.183Z,6.00
2018-03-03T01:43:24.002Z,5.78
2018-03-03T01:45:51.992Z,5.85
2018-03-03T01:48:19.957Z,5.92
2018-03-03T01:50:47.905Z,6.10
2018-03-03T01:53:15.791Z,5.95
2018-03-03T01:55:43.690Z,5.83
2018-03-03T01:58:11.618Z,5.62
2018-03-03T02:00:39.692Z,6.16
2018-03-03T02:03:07.597Z,6.49
2018-03-03T02:05:35.541Z,6.68
2018-03-03T02:08:03.456Z,6.25
2018-03-03T02:10:31.465Z,6.25
2018-03-03T02:12:59.440Z,6.54
2018-03-03T02:15:27.406Z,6.18
2018-03-03T02:17:55.390Z,6.11
2018-03-03T02:20:23.349Z,5.77
2018-03-03T02:22:51.289Z,5.93
2018-03-03T02:25:19.231Z,5.99
2018-03-03T02:27:47.106Z,5.53
2018-03-03T02:30:15.146Z,5.98
2018-03-03T02:32:43.105Z,6.42
2018-03-03T02:35:11.007Z,6.39
2018-03-03T02:37:38.984Z,5.41
2018-03-03T02:40:06.949Z,5.23
2018-03-03T02:42:35.430Z,5.51
2018-03-03T02:45:03.445Z,5.71
2018-03-03T02:47:31.464Z,5.75
2018-03-03T02:49:59.430Z,5.89
2018-03-03T02:52:27.405Z,5.48
2018-03-03T02:54:59.256Z,5.91
2018-03-03T02:57:27.217Z,6.19
2018-03-03T02:59:55.198Z,6.14
2018-03-03T03:02:23.095Z,6.45
2018-03-03T03:04:51.038Z,6.58
2018-03-03T03:07:18.918Z,6.71
2018-03-03T03:09:46.866Z,5.80
2018-03-03T03:12:14.788Z,5.27
2018-03-03T03:14:42.782Z,5.63
2018-03-03T03:17:10.807Z,5.72
2018-03-03T03:19:38.808Z,6.10
2018-03-03T03:22:06.761Z,5.26
2018-03-03T03:24:34.626Z,5.25
2018-03-03T03:27:02.643Z,5.09
2018-03-03T03:29:30.576Z,5.09
2018-03-03T03:31:58.549Z,5.81
2018-03-03T03:34:26.532Z,5.82
2018-03-03T03:36:54.551Z,5.71
2018-03-03T03:39:22.432Z,5.89
2018-03-03T03:41:50.376Z,5.14
2018-03-03T03:44:18.637Z,5.94
2018-03-03T03:46:46.610Z,6.14
2018-03-03T03:49:14.520Z,6.47
2018-03-03T03:51:42.544Z,6.47
2018-03-03T03:54:10.493Z,5.79
2018-03-03T03:56:38.465Z,6.07
2018-03-03T03:59:06.360Z,6.73
2018-03-03T04:01:34.270Z,7.01
2018-03-03T04:04:02.204Z,6.66
2018-03-03T04:06:30.140Z,6.64
2018-03-03T04:08:58.113Z,6.30
2018-03-03T04:11:26.015Z,6.02
2018-03-03T04:13:53.984Z,6.83
2018-03-03T04:16:21.914Z,7.29
2018-03-03T04:18:49.874Z,7.15
2018-03-03T04:21:17.826Z,7.06
2018-03-03T04:23:45.773Z,6.90
2018-03-03T04:26:13.780Z,6.99
2018-03-03T04:28:41.831Z,6.85
2018-03-03T04:31:09.825Z,7.13
2018-03-03T04:33:37.846Z,6.07
2018-03-03T04:36:05.876Z,6.16
2018-03-03T04:38:33.946Z,6.04
2018-03-03T04:41:01.896Z,6.75
2018-03-03T04:43:29.943Z,6.46
2018-03-03T04:45:58.525Z,6.42
2018-03-03T04:48:26.687Z,5.97
2018-03-03T04:50:54.844Z,6.16
2018-03-03T04:53:23.099Z,6.27
2018-03-03T04:55:51.242Z,6.95
2018-03-03T04:58:22.302Z,7.26
2018-03-03T05:00:50.917Z,6.63
2018-03-03T05:03:19.916Z,7.24
2018-03-03T05:05:53.646Z,6.22
2018-03-03T05:08:38.892Z,6.42
2018-03-03T05:11:11.522Z,6.08
2018-03-03T05:13:43.482Z,6.31
2018-03-03T05:16:17.317Z,6.26
2018-03-03T05:19:04.035Z,6.75
2018-03-03T05:21:37.610Z,6.53
2018-03-03T05:24:11.355Z,6.54
2018-03-03T05:26:41.916Z,6.75
2018-03-03T05:29:27.013Z,6.34
2018-03-03T05:32:00.646Z,6.79
2018-03-03T05:34:34.288Z,7.05
2018-03-03T05:37:07.786Z,6.45
2018-03-03T05:42:49.568Z,7.23
2018-03-03T05:48:38.154Z,7.32
2018-03-03T05:54:39.707Z,7.21
2018-03-03T05:57:10.339Z,7.16
2018-03-03T05:59:54.208Z,7.11
2018-03-03T06:05:31.193Z,8.22
2018-03-03T06:08:10.149Z,8.28
2018-03-03T06:10:38.854Z,7.76
2018-03-03T06:13:07.037Z,8.01
2018-03-03T06:15:35.799Z,8.39
2018-03-03T06:18:03.846Z,8.54
2018-03-03T06:20:31.804Z,8.33
2018-03-03T06:23:00.775Z,8.43
2018-03-03T06:25:28.834Z,8.58
2018-03-03T06:27:56.829Z,8.61
2018-03-03T06:30:24.828Z,8.19
2018-03-03T06:32:59.225Z,7.99
2018-03-03T06:35:28.131Z,8.38
2018-03-03T06:37:56.194Z,9.58
2018-03-03T06:40:24.213Z,9.97
2018-03-03T06:42:53.129Z,10.24
2018-03-03T06:45:21.180Z,10.40
2018-03-03T06:47:49.420Z,10.30
2018-03-03T06:50:17.676Z,10.02
2018-03-03T06:52:45.695Z,10.06
2018-03-03T06:55:14.561Z,10.08
2018-03-03T06:57:42.532Z,9.64
2018-03-03T07:00:10.485Z,10.11
2018-03-03T07:02:40.337Z,10.25
2018-03-03T07:05:08.293Z,9.95
2018-03-03T07:07:36.253Z,9.89
2018-03-03T07:10:04.206Z,10.02
2018-03-03T07:12:32.205Z,10.11
2018-03-03T07:15:05.861Z,9.78
2018-03-03T07:17:33.874Z,10.19
2018-03-03T07:20:01.828Z,10.48
2018-03-03T07:22:29.806Z,10.12
2018-03-03T07:24:57.768Z,10.47
2018-03-03T07:27:25.743Z,10.63
2018-03-03T07:29:53.736Z,11.20
2018-03-03T07:32:22.128Z,10.76
2018-03-03T07:34:50.041Z,11.51
2018-03-03T07:37:18.003Z,12.77
2018-03-03T07:39:45.901Z,13.35
2018-03-03T07:42:13.833Z,12.56
2018-03-03T07:44:41.746Z,13.02
2018-03-03T07:47:09.786Z,12.87
2018-03-03T07:49:37.856Z,12.52
2018-03-03T07:52:06.082Z,13.26
2018-03-03T07:54:34.239Z,12.67
2018-03-03T07:57:13.148Z,13.68
2018-03-03T07:59:41.097Z,12.89
2018-03-03T08:02:10.141Z,13.20
2018-03-03T08:04:38.590Z,13.30
2018-03-03T08:07:06.996Z,13.80
2018-03-03T08:09:35.023Z,14.38
2018-03-03T08:12:03.002Z,14.11
2018-03-03T08:14:31.020Z,13.81
2018-03-03T08:16:58.987Z,13.53
2018-03-03T08:19:26.858Z,14.67
2018-03-03T08:21:54.765Z,15.66
2018-03-03T08:24:22.662Z,15.27
2018-03-03T08:26:50.589Z,16.89
2018-03-03T08:29:18.556Z,18.26
2018-03-03T08:31:46.540Z,18.28
2018-03-03T08:34:14.516Z,18.44
2018-03-03T08:36:42.473Z,19.07
2018-03-03T08:39:10.401Z,19.29
2018-03-03T08:41:38.336Z,19.50
2018-03-03T08:44:06.405Z,18.92
2018-03-03T08:46:34.310Z,20.20
2018-03-03T08:49:02.338Z,21.36
2018-03-03T08:51:30.315Z,21.08
2018-03-03T08:53:58.601Z,21.56
2018-03-03T08:56:26.471Z,20.80
2018-03-03T08:58:54.396Z,21.20
2018-03-03T09:01:22.302Z,21.18
2018-03-03T09:03:50.248Z,20.29
2018-03-03T09:06:18.278Z,20.71
2018-03-03T09:08:46.262Z,20.35
2018-03-03T09:11:14.140Z,19.95
2018-03-03T09:13:42.122Z,20.66
2018-03-03T09:16:10.049Z,21.54
2018-03-03T09:18:38.081Z,21.90
2018-03-03T09:21:06.019Z,23.33
2018-03-03T09:23:33.935Z,22.74
2018-03-03T09:26:01.861Z,22.51
2018-03-03T09:28:29.772Z,22.90
2018-03-03T09:30:57.709Z,22.50
2018-03-03T09:33:25.588Z,22.07
2018-03-03T09:35:53.514Z,21.15
2018-03-03T09:38:21.513Z,21.59
2018-03-03T09:40:49.471Z,21.74
2018-03-03T09:43:17.414Z,21.70
2018-03-03T09:45:45.386Z,23.17
2018-03-03T09:48:13.327Z,24.67
2018-03-03T09:50:41.293Z,24.52
2018-03-03T09:53:09.271Z,25.06
2018-03-03T09:55:37.606Z,24.54
2018-03-03T09:58:05.492Z,24.91
2018-03-03T10:00:33.433Z,23.38
2018-03-03T10:03:01.372Z,21.97
2018-03-03T10:05:29.220Z,22.98
2018-03-03T10:07:57.270Z,24.18
2018-03-03T10:10:25.217Z,23.81
2018-03-03T10:12:53.177Z,24.45
2018-03-03T10:15:21.133Z,25.20
2018-03-03T10:17:49.042Z,25.23
2018-03-03T10:20:17.025Z,24.28
2018-03-03T10:22:44.999Z,22.67
2018-03-03T10:25:12.989Z,22.87
2018-03-03T10:27:40.996Z,21.57
2018-03-03T10:30:08.963Z,21.62
2018-03-03T10:32:36.901Z,21.17
2018-03-03T10:35:04.889Z,21.23
2018-03-03T10:37:32.870Z,20.42
2018-03-03T10:40:00.821Z,21.45
2018-03-03T10:42:28.792Z,20.37
2018-03-03T10:44:56.738Z,19.78
2018-03-03T10:47:24.604Z,19.67
2018-03-03T10:49:52.508Z,20.58
2018-03-03T10:52:20.440Z,20.32
2018-03-03T10:54:48.945Z,20.46
2018-03-03T10:57:18.040Z,20.34
2018-03-03T10:59:46.131Z,20.21
2018-03-03T11:02:14.114Z,20.03
2018-03-03T11:04:42.134Z,19.26
2018-03-03T11:07:10.076Z,18.53
2018-03-03T11:09:38.075Z,18.85
2018-03-03T11:12:06.065Z,20.24
2018-03-03T11:14:34.052Z,20.17
2018-03-03T11:17:02.010Z,21.60
2018-03-03T11:19:29.957Z,20.89
2018-03-03T11:21:57.950Z,21.53
2018-03-03T11:24:25.876Z,22.34
2018-03-03T11:26:53.833Z,22.22
2018-03-03T11:29:21.757Z,20.01
2018-03-03T11:31:49.692Z,22.67
2018-03-03T11:34:17.613Z,21.78
2018-03-03T11:36:45.565Z,22.64
2018-03-03T11:39:13.559Z,23.65
2018-03-03T11:41:41.507Z,24.29
2018-03-03T11:44:09.568Z,24.57
2018-03-03T11:46:37.569Z,25.65
2018-03-03T11:49:05.426Z,25.36
2018-03-03T11:51:33.395Z,25.40
2018-03-03T11:54:01.342Z,25.49
2018-03-03T11:56:29.280Z,25.97
2018-03-03T11:58:57.556Z,26.11
2018-03-03T12:01:25.491Z,26.08
2018-03-03T12:03:53.440Z,26.49
2018-03-03T12:06:21.352Z,25.84
2018-03-03T12:08:49.257Z,26.02
2018-03-03T12:11:17.264Z,26.95
2018-03-03T12:13:45.167Z,27.13
2018-03-03T12:16:13.133Z,27.68
2018-03-03T12:18:41.094Z,26.10
2018-03-03T12:21:09.021Z,22.54
2018-03-03T12:23:36.957Z,21.96
2018-03-03T12:26:04.888Z,23.80
2018-03-03T12:28:32.770Z,23.85
2018-03-03T12:31:00.701Z,24.05
2018-03-03T12:33:28.613Z,23.49
2018-03-03T12:35:56.624Z,23.43
2018-03-03T12:38:24.534Z,23.45
2018-03-03T12:40:52.528Z,23.63
2018-03-03T12:43:20.505Z,24.20
2018-03-03T12:45:48.474Z,22.45
2018-03-03T12:48:16.365Z,23.48
2018-03-03T12:50:44.308Z,22.72
2018-03-03T12:53:12.193Z,23.01
2018-03-03T12:55:40.152Z,22.80
2018-03-03T12:58:08.106Z,22.95
2018-03-03T13:00:36.461Z,22.93
2018-03-03T13:03:04.339Z,23.70
2018-03-03T13:05:32.319Z,20.96
2018-03-03T13:08:00.272Z,20.68
2018-03-03T13:10:28.263Z,20.82
2018-03-03T13:12:56.245Z,20.71
2018-03-03T13:15:24.680Z,21.73
2018-03-03T13:17:52.688Z,20.67
2018-03-03T13:20:21.126Z,20.81
2018-03-03T13:22:49.087Z,22.05
2018-03-03T13:25:16.981Z,21.32
2018-03-03T13:27:44.903Z,22.12
2018-03-03T13:30:12.876Z,22.33
2018-03-03T13:32:40.771Z,23.17
2018-03-03T13:35:08.894Z,23.50
2018-03-03T13:37:36.792Z,21.94
2018-03-03T13:40:04.691Z,22.32
2018-03-03T13:42:32.665Z,21.17
2018-03-03T13:45:00.589Z,21.75
2018-03-03T13:47:28.593Z,22.00
2018-03-03T13:49:56.902Z,20.46
2018-03-03T13:52:25.329Z,20.25
2018-03-03T13:54:53.918Z,18.35
2018-03-03T13:57:22.401Z,18.68
2018-03-03T13:59:50.925Z,17.13
2018-03-03T14:02:19.552Z,17.48
2018-03-03T14:04:47.516Z,17.63
2018-03-03T14:07:15.464Z,17.97
2018-03-03T14:09:43.406Z,15.94
2018-03-03T14:12:11.386Z,16.71
2018-03-03T14:14:39.330Z,17.28
2018-03-03T14:17:07.264Z,17.04
2018-03-03T14:19:35.245Z,16.54
2018-03-03T14:22:03.186Z,17.20
2018-03-03T14:24:31.072Z,16.63
2018-03-03T14:26:59.029Z,16.96
2018-03-03T14:29:27.096Z,17.89
2018-03-03T14:31:54.986Z,17.98
2018-03-03T14:34:22.952Z,17.64
2018-03-03T14:36:51.425Z,16.85
2018-03-03T14:39:19.870Z,18.00
2018-03-03T14:41:48.384Z,17.66
2018-03-03T14:44:17.073Z,18.03
2018-03-03T14:46:45.758Z,17.74
2018-03-03T14:49:14.320Z,17.21
2018-03-03T14:51:42.713Z,17.29
2018-03-03T14:54:11.182Z,17.00
2018-03-03T14:56:39.672Z,17.39
2018-03-03T14:59:08.257Z,16.23
2018-03-03T15:01:36.828Z,16.82
2018-03-03T15:04:05.429Z,16.77
2018-03-03T15:06:33.904Z,15.74
2018-03-03T15:09:02.116Z,15.62
2018-03-03T15:11:30.754Z,16.28
2018-03-03T15:13:59.345Z,16.10
2018-03-03T15:16:27.624Z,16.11
2018-03-03T15:18:56.096Z,15.60
2018-03-03T15:21:24.382Z,15.51
2018-03-03T15:23:52.920Z,15.78
2018-03-03T15:26:21.445Z,15.89
2018-03-03T15:28:49.728Z,15.42
2018-03-03T15:31:18.192Z,15.78
2018-03-03T15:33:46.679Z,16.05
2018-03-03T15:36:15.266Z,15.52
2018-03-03T15:38:43.577Z,14.98
2018-03-03T15:41:12.329Z,14.40
2018-03-03T15:43:41.004Z,13.79
2018-03-03T15:46:09.495Z,13.97
2018-03-03T15:48:37.968Z,14.81
2018-03-03T15:51:06.159Z,14.46
2018-03-03T15:53:34.416Z,14.79
2018-03-03T15:56:03.114Z,14.57
2018-03-03T15:58:31.491Z,13.91
2018-03-03T16:00:59.964Z,14.40
2018-03-03T16:03:28.238Z,14.25
2018-03-03T16:05:57.024Z,14.76
2018-03-03T16:08:25.393Z,13.91
2018-03-03T16:10:53.880Z,13.66
2018-03-03T16:13:22.460Z,14.12
2018-03-03T16:15:51.144Z,14.47
2018-03-03T16:18:19.538Z,14.39
2018-03-03T16:20:48.218Z,14.32
2018-03-03T16:23:16.806Z,14.41
2018-03-03T16:25:45.391Z,13.46
2018-03-03T16:28:13.664Z,12.96
2018-03-03T16:30:42.358Z,12.92
2018-03-03T16:33:10.807Z,13.04
2018-03-03T16:35:38.801Z,12.87
2018-03-03T16:38:06.950Z,12.99
2018-03-03T16:40:35.072Z,13.32
2018-03-03T16:43:03.041Z,13.47
2018-03-03T16:45:30.936Z,13.21
2018-03-03T16:47:59.482Z,13.15
2018-03-03T16:50:27.376Z,12.11
2018-03-03T16:52:55.465Z,12.26
2018-03-03T16:55:23.406Z,12.70
2018-03-03T16:57:51.396Z,12.95
2018-03-03T17:00:19.474Z,13.07
2018-03-03T17:02:47.479Z,11.94
2018-03-03T17:05:15.472Z,11.40
2018-03-03T17:07:43.710Z,11.78
2018-03-03T17:10:11.768Z,12.45
2018-03-03T17:12:39.743Z,12.64
2018-03-03T17:15:07.704Z,11.86
2018-03-03T17:17:35.629Z,12.38
2018-03-03T17:20:03.582Z,12.63
2018-03-03T17:22:31.543Z,12.52
2018-03-03T17:24:59.471Z,11.27
2018-03-03T17:27:27.382Z,11.70
2018-03-03T17:29:55.418Z,12.07
2018-03-03T17:32:23.374Z,12.27
2018-03-03T17:34:51.450Z,12.34
2018-03-03T17:37:19.465Z,12.60
2018-03-03T17:39:47.429Z,11.74
2018-03-03T17:42:15.377Z,11.89
2018-03-03T17:44:43.289Z,10.94
2018-03-03T17:47:11.218Z,11.02
2018-03-03T17:49:39.160Z,10.91
2018-03-03T17:52:07.129Z,11.15
2018-03-03T17:54:35.121Z,11.21
2018-03-03T17:57:03.066Z,11.09
2018-03-03T17:59:31.000Z,11.46
2018-03-03T18:01:59.021Z,11.47
2018-03-03T18:04:26.956Z,11.03
2018-03-03T18:06:54.925Z,10.51
2018-03-03T18:09:23.073Z,10.72
2018-03-03T18:11:57.938Z,11.07
2018-03-03T18:14:25.867Z,10.85
2018-03-03T18:16:53.806Z,10.98
2018-03-03T18:19:33.962Z,11.09
2018-03-03T18:22:02.021Z,10.78
2018-03-03T18:24:37.581Z,11.04
2018-03-03T18:27:05.553Z,11.18
2018-03-03T18:29:33.573Z,11.03
2018-03-03T18:32:01.566Z,11.20
2018-03-03T18:34:29.544Z,11.20
2018-03-03T18:36:57.513Z,11.22
2018-03-03T18:39:25.548Z,11.32
2018-03-03T18:41:53.521Z,11.40
2018-03-03T18:44:21.494Z,11.50
2018-03-03T18:46:49.436Z,11.57
2018-03-03T18:49:17.374Z,11.08
2018-03-03T18:51:45.370Z,11.24
2018-03-03T18:54:13.312Z,11.40
2018-03-03T18:56:41.299Z,10.98
2018-03-03T18:59:09.446Z,11.32
2018-03-03T19:01:37.413Z,10.78
2018-03-03T19:04:05.377Z,11.20
2018-03-03T19:06:33.363Z,10.74
2018-03-03T19:09:01.313Z,11.21
2018-03-03T19:11:29.469Z,11.28
2018-03-03T19:13:57.564Z,11.36
2018-03-03T19:16:25.527Z,11.46
2018-03-03T19:18:53.557Z,11.26
2018-03-03T19:21:21.506Z,11.36
2018-03-03T19:23:49.418Z,11.58
2018-03-03T19:26:17.385Z,11.36
2018-03-03T19:28:45.470Z,11.36
2018-03-03T19:31:13.479Z,11.34
2018-03-03T19:33:41.445Z,11.51
2018-03-03T19:36:09.420Z,11.32
2018-03-03T19:38:37.384Z,10.53
2018-03-03T19:41:05.310Z,10.54
2018-03-03T19:43:33.199Z,11.03
2018-03-03T19:46:01.098Z,11.16
2018-03-03T19:48:29.061Z,11.31
2018-03-03T19:50:57.001Z,11.13
2018-03-03T19:53:24.965Z,11.40
2018-03-03T19:55:53.051Z,11.20
2018-03-03T19:58:21.054Z,10.71
2018-03-03T20:00:49.001Z,11.29
2018-03-03T20:03:17.017Z,11.35
2018-03-03T20:05:45.061Z,10.49
2018-03-03T20:08:13.122Z,10.87
2018-03-03T20:10:41.098Z,10.94
2018-03-03T20:13:09.322Z,10.98
2018-03-03T20:15:37.273Z,11.05
2018-03-03T20:18:05.214Z,11.10
2018-03-03T20:20:33.207Z,11.25
2018-03-03T20:23:01.169Z,11.32
2018-03-03T20:25:29.123Z,11.15
2018-03-03T20:27:57.056Z,11.11
2018-03-03T20:30:25.089Z,11.15
2018-03-03T20:32:53.020Z,10.81
2018-03-03T20:35:20.986Z,10.89
2018-03-03T20:37:48.942Z,10.76
2018-03-03T20:40:16.946Z,10.69
2018-03-03T20:42:44.928Z,10.45
2018-03-03T20:45:12.908Z,10.06
2018-03-03T20:47:40.926Z,9.97
2018-03-03T20:50:08.877Z,10.15
2018-03-03T20:52:36.811Z,9.79
2018-03-03T20:55:04.809Z,9.62
2018-03-03T20:57:32.703Z,9.23
2018-03-03T21:00:00.626Z,9.40
2018-03-03T21:02:28.597Z,8.93
2018-03-03T21:04:56.545Z,8.75
2018-03-03T21:07:24.510Z,9.06
2018-03-03T21:09:52.390Z,9.76
2018-03-03T21:12:25.954Z,10.02
2018-03-03T21:14:54.345Z,9.67
2018-03-03T21:17:22.285Z,9.54
2018-03-03T21:19:50.389Z,9.49
2018-03-03T21:22:18.332Z,10.17
2018-03-03T21:24:46.329Z,9.72
2018-03-03T21:27:14.265Z,10.09
2018-03-03T21:29:42.149Z,9.55
2018-03-03T21:32:10.125Z,10.06
2018-03-03T21:34:38.049Z,10.48
2018-03-03T21:37:05.979Z,10.19
2018-03-03T21:39:33.891Z,9.52
2018-03-03T21:42:01.853Z,9.88
2018-03-03T21:44:29.785Z,9.93
2018-03-03T21:46:57.789Z,9.51
2018-03-03T21:49:25.708Z,9.38
2018-03-03T21:51:53.565Z,9.46
2018-03-03T21:54:21.609Z,9.86
2018-03-03T21:56:49.511Z,10.16
2018-03-03T21:59:17.473Z,10.01
2018-03-03T22:01:45.451Z,10.18
2018-03-03T22:04:13.406Z,9.88
2018-03-03T22:06:41.378Z,10.26
2018-03-03T22:09:09.350Z,10.37
2018-03-03T22:11:37.332Z,10.38
2018-03-03T22:14:05.340Z,10.00
2018-03-03T22:16:33.475Z,9.87
2018-03-03T22:19:01.417Z,10.16
2018-03-03T22:21:29.431Z,10.40
2018-03-03T22:23:57.422Z,10.44
2018-03-03T22:26:25.347Z,10.29
2018-03-03T22:28:53.291Z,10.06
2018-03-03T22:31:21.230Z,9.96
2018-03-03T22:33:49.166Z,10.04
2018-03-03T22:36:17.089Z,10.13
2018-03-03T23:22:26.420Z,9.46
2018-03-03T23:24:54.361Z,9.47
2018-03-03T23:27:23.032Z,9.31
2018-03-03T23:29:50.958Z,9.30
2018-03-03T23:32:18.925Z,9.01
2018-03-03T23:34:46.928Z,9.40
2018-03-03T23:37:14.900Z,9.33
2018-03-03T23:39:42.845Z,9.40
2018-03-03T23:42:10.726Z,8.98
2018-03-03T23:44:38.694Z,8.83
2018-03-03T23:47:06.667Z,9.14
2018-03-03T23:49:34.755Z,9.36
2018-03-03T23:52:02.681Z,9.69
2018-03-03T23:54:30.613Z,9.44
2018-03-03T23:56:58.488Z,8.36
2018-03-03T23:59:26.486Z,9.09
